Time;durP1;ratioP1;P1;durP2;ratioP2;P2;SDS_P1;SDS_P2;PMS_P1;PMS_P2;Temp;Humidity;BMP_temperature;BMP_pressure;BME280_temperature;BME280_humidity;BME280_pressure;Samples;Min_cycle;Max_cycle;Signal;HPM_P1;HPM_P2
2021/06/28 00:00:29;;;;;;;13.32;5.90;;;15.40;99.90;;;;;;5034475;28;20045;-90
2021/06/28 00:02:57;;;;;;;10.88;5.50;;;15.40;99.90;;;;;;5017907;28;20034;-92
2021/06/28 00:05:27;;;;;;;8.23;5.32;;;15.40;99.90;;;;;;5034069;28;20490;-91
2021/06/28 00:07:57;;;;;;;8.52;5.15;;;15.40;99.90;;;;;;5050023;28;20127;-90
2021/06/28 00:10:27;;;;;;;9.18;5.50;;;15.40;99.90;;;;;;5001836;28;20486;-91
2021/06/28 00:12:56;;;;;;;12.23;6.75;;;15.40;99.90;;;;;;5033379;28;20042;-89
2021/06/28 00:15:27;;;;;;;11.10;5.10;;;15.40;99.90;;;;;;5032722;28;20121;-91
2021/06/28 00:17:55;;;;;;;11.25;5.60;;;15.30;99.90;;;;;;5049832;28;20220;-91
2021/06/28 00:20:22;;;;;;;12.90;5.60;;;15.40;99.90;;;;;;5050439;28;20069;-90
2021/06/28 00:22:49;;;;;;;10.90;5.22;;;15.40;99.90;;;;;;5033965;28;20042;-91
2021/06/28 00:25:20;;;;;;;10.93;5.38;;;15.40;99.90;;;;;;5033532;28;20054;-90
2021/06/28 00:27:48;;;;;;;8.25;5.13;;;15.40;99.90;;;;;;5051185;28;20467;-90
2021/06/28 00:30:18;;;;;;;11.75;5.70;;;15.40;99.90;;;;;;5000954;28;20042;-87
2021/06/28 00:32:46;;;;;;;11.07;5.18;;;15.50;99.90;;;;;;5033721;28;20129;-90
2021/06/28 00:35:13;;;;;;;11.38;5.32;;;15.50;99.90;;;;;;5050296;28;20044;-90
2021/06/28 00:37:41;;;;;;;9.25;5.40;;;15.50;99.90;;;;;;5001154;28;20041;-89
2021/06/28 00:40:10;;;;;;;9.13;5.45;;;15.50;99.90;;;;;;5033354;28;20046;-90
2021/06/28 00:42:38;;;;;;;11.98;5.57;;;15.60;99.90;;;;;;5033486;28;20038;-90
2021/06/28 00:45:20;;;;;;;9.25;5.28;;;15.50;99.90;;;;;;5032831;28;20046;-89
2021/06/28 00:47:48;;;;;;;9.52;5.45;;;15.60;99.90;;;;;;5033065;28;20068;-89
2021/06/28 00:50:16;;;;;;;8.95;5.50;;;15.60;99.90;;;;;;5032720;28;20077;-90
2021/06/28 00:52:45;;;;;;;11.27;5.25;;;15.60;99.90;;;;;;5017038;28;20077;-88
2021/06/28 00:55:13;;;;;;;9.70;5.32;;;15.60;99.90;;;;;;5000739;28;20049;-88
2021/06/28 00:57:40;;;;;;;10.65;5.93;;;15.60;99.90;;;;;;5001419;28;20037;-90
2021/06/28 01:00:09;;;;;;;12.20;6.03;;;15.60;99.90;;;;;;5050148;28;20034;-88
2021/06/28 01:02:36;;;;;;;10.05;5.78;;;15.60;99.90;;;;;;5049462;28;20037;-90
2021/06/28 01:05:08;;;;;;;12.48;6.25;;;15.60;99.90;;;;;;5032778;28;20050;-89
2021/06/28 01:07:35;;;;;;;11.25;5.90;;;15.60;99.90;;;;;;5049476;28;20405;-89
2021/06/28 01:10:03;;;;;;;8.35;5.53;;;15.60;99.90;;;;;;5016487;28;20037;-88
2021/06/28 01:12:30;;;;;;;13.32;6.43;;;15.60;99.90;;;;;;5000930;28;20046;-89
2021/06/28 01:14:57;;;;;;;10.90;6.10;;;15.60;99.90;;;;;;5032734;28;20041;-89
2021/06/28 01:17:24;;;;;;;9.82;6.10;;;15.60;99.90;;;;;;5000306;28;20046;-90
2021/06/28 01:20:00;;;;;;;11.02;6.63;;;15.60;99.90;;;;;;5032667;28;20124;-90
2021/06/28 01:22:31;;;;;;;9.35;6.20;;;15.60;99.90;;;;;;5032696;28;20046;-89
2021/06/28 01:24:59;;;;;;;15.27;7.03;;;15.50;99.90;;;;;;5048494;28;20505;-90
2021/06/28 01:27:28;;;;;;;13.35;6.88;;;15.50;99.90;;;;;;5016524;28;20402;-89
2021/06/28 01:29:56;;;;;;;12.32;6.72;;;15.50;99.90;;;;;;5016646;28;20120;-90
2021/06/28 01:32:23;;;;;;;10.25;6.30;;;15.50;99.90;;;;;;5015940;28;20521;-90
2021/06/28 01:34:51;;;;;;;11.38;6.70;;;15.50;99.90;;;;;;5016350;28;20038;-90
2021/06/28 01:37:26;;;;;;;12.43;7.00;;;15.40;99.90;;;;;;5032019;28;20540;-89
2021/06/28 01:39:54;;;;;;;;;;;15.40;99.90;;;;;;5032641;28;20402;-90
2021/06/28 01:42:23;;;;;;;9.00;6.78;;;15.30;99.90;;;;;;5049264;28;20357;-89
2021/06/28 01:44:51;;;;;;;13.43;6.90;;;15.30;99.90;;;;;;5032245;28;20038;-89
2021/06/28 01:47:18;;;;;;;10.82;7.05;;;15.20;99.90;;;;;;5031830;28;20034;-91
2021/06/28 01:49:45;;;;;;;11.70;6.93;;;15.20;99.90;;;;;;5048608;28;20042;-89
2021/06/28 01:52:13;;;;;;;12.63;7.05;;;15.20;99.90;;;;;;5031765;28;20041;-91
2021/06/28 01:54:40;;;;;;;14.50;7.55;;;15.20;99.90;;;;;;5032214;28;20064;-91
2021/06/28 01:57:07;;;;;;;10.32;7.22;;;15.20;99.90;;;;;;5031563;28;20041;-90
2021/06/28 01:59:37;;;;;;;13.88;8.13;;;15.10;99.90;;;;;;5015753;28;20168;-90
2021/06/28 02:02:05;;;;;;;12.02;7.50;;;15.10;99.90;;;;;;5031977;28;20049;-87
2021/06/28 02:04:35;;;;;;;11.45;7.53;;;15.10;99.90;;;;;;5016698;28;20124;-90
2021/06/28 02:07:05;;;;;;;13.60;7.70;;;15.10;99.90;;;;;;5048695;28;20389;-91
2021/06/28 02:09:32;;;;;;;15.73;7.75;;;15.00;99.90;;;;;;5031763;28;20038;-90
2021/06/28 02:11:59;;;;;;;17.05;8.40;;;15.00;99.90;;;;;;5048564;28;20030;-89
2021/06/28 02:14:27;;;;;;;13.75;7.95;;;15.00;99.90;;;;;;5015629;28;20038;-90
2021/06/28 02:16:53;;;;;;;13.45;8.30;;;15.00;99.90;;;;;;5016172;28;20047;-90
2021/06/28 02:19:21;;;;;;;11.68;7.63;;;15.00;99.90;;;;;;5031566;28;20112;-90
2021/06/28 02:21:49;;;;;;;12.35;8.70;;;15.00;99.90;;;;;;5031847;28;20461;-91
2021/06/28 02:24:16;;;;;;;12.63;8.40;;;15.00;99.90;;;;;;5049516;28;20457;-90
2021/06/28 02:26:44;;;;;;;15.95;8.40;;;14.90;99.90;;;;;;4999894;28;20177;-90
2021/06/28 02:29:12;;;;;;;14.68;8.23;;;15.00;99.90;;;;;;5031156;28;20034;-90
2021/06/28 02:31:40;;;;;;;14.98;8.88;;;15.00;99.90;;;;;;5031624;28;20040;-89
2021/06/28 02:34:07;;;;;;;13.43;8.18;;;14.90;99.90;;;;;;5015527;28;20042;-89
2021/06/28 02:36:34;;;;;;;14.65;8.75;;;14.90;99.90;;;;;;5047275;28;20050;-89
2021/06/28 02:39:04;;;;;;;15.73;8.90;;;14.90;99.90;;;;;;5048262;28;20045;-89
2021/06/28 02:41:31;;;;;;;13.15;9.10;;;14.90;99.90;;;;;;5048049;28;20042;-90
2021/06/28 02:43:59;;;;;;;18.75;9.48;;;14.90;99.90;;;;;;5031156;28;20081;-90
2021/06/28 02:46:25;;;;;;;14.82;8.88;;;14.90;99.90;;;;;;5030503;28;20076;-89
2021/06/28 02:48:52;;;;;;;13.38;8.45;;;14.90;99.90;;;;;;5031047;28;20513;-89
2021/06/28 02:51:20;;;;;;;16.15;9.65;;;14.90;99.90;;;;;;5030214;28;20038;-89
2021/06/28 02:53:47;;;;;;;15.07;9.27;;;14.90;99.90;;;;;;5014919;28;20046;-90
2021/06/28 02:56:19;;;;;;;12.90;9.05;;;14.90;99.90;;;;;;5030708;28;20077;-89
2021/06/28 02:58:51;;;;;;;16.13;9.20;;;14.90;99.90;;;;;;5047213;28;20045;-89
2021/06/28 03:01:19;;;;;;;14.93;8.82;;;14.90;99.90;;;;;;5048434;28;20041;-89
2021/06/28 03:03:46;;;;;;;13.23;9.45;;;14.90;99.90;;;;;;5015145;28;20034;-90
2021/06/28 03:06:14;;;;;;;16.80;9.43;;;14.90;99.90;;;;;;5030840;28;20045;-89
2021/06/28 03:08:42;;;;;;;14.55;8.85;;;14.90;99.90;;;;;;4998947;28;20030;-89
2021/06/28 03:11:09;;;;;;;16.23;9.90;;;14.90;99.90;;;;;;5015368;28;20061;-90
2021/06/28 03:13:37;;;;;;;14.90;8.98;;;14.80;99.90;;;;;;5030668;28;20038;-89
2021/06/28 03:16:05;;;;;;;16.45;9.43;;;14.80;99.90;;;;;;5015172;28;20124;-89
2021/06/28 03:18:33;;;;;;;13.45;9.43;;;14.80;99.90;;;;;;5030784;28;20033;-89
2021/06/28 03:21:01;;;;;;;15.23;9.48;;;14.80;99.90;;;;;;5015177;28;20089;-89
2021/06/28 03:23:28;;;;;;;17.33;9.98;;;14.80;99.90;;;;;;5030846;28;20042;-90
2021/06/28 03:25:55;;;;;;;16.15;9.38;;;14.80;99.90;;;;;;5031036;28;20120;-90
2021/06/28 03:28:22;;;;;;;14.40;9.25;;;14.80;99.90;;;;;;5030157;28;20475;-90
2021/06/28 03:30:50;;;;;;;17.17;10.02;;;14.80;99.90;;;;;;5014673;28;20065;-89
2021/06/28 03:33:16;;;;;;;15.20;10.02;;;14.90;99.90;;;;;;5030483;28;20040;-89
2021/06/28 03:35:44;;;;;;;15.02;9.63;;;14.80;99.90;;;;;;5014334;28;20465;-90
2021/06/28 03:38:11;;;;;;;13.65;9.75;;;14.80;99.90;;;;;;5014814;28;20064;-90
2021/06/28 03:40:38;;;;;;;12.50;9.52;;;14.90;99.90;;;;;;5014309;28;20390;-89
2021/06/28 03:43:07;;;;;;;21.00;9.90;;;14.90;99.90;;;;;;5030722;28;20056;-89
2021/06/28 03:45:35;;;;;;;15.50;9.20;;;14.90;99.90;;;;;;5030276;28;20503;-90
2021/06/28 03:48:03;;;;;;;14.10;9.55;;;14.90;99.90;;;;;;5030937;28;20038;-89
2021/06/28 03:50:30;;;;;;;15.55;10.02;;;15.00;99.90;;;;;;5017868;28;20038;-89
2021/06/28 03:52:58;;;;;;;15.05;9.85;;;15.10;99.90;;;;;;5018390;28;20537;-90
2021/06/28 03:55:25;;;;;;;19.00;10.07;;;15.10;99.90;;;;;;5033939;28;20046;-90
2021/06/28 03:57:51;;;;;;;15.70;9.55;;;15.10;99.90;;;;;;5034178;28;20441;-89
2021/06/28 04:00:21;;;;;;;14.55;9.98;;;15.10;99.90;;;;;;5051100;28;20475;-88
2021/06/28 04:02:48;;;;;;;18.60;9.98;;;15.10;99.90;;;;;;5034207;28;20061;-89
2021/06/28 04:05:22;;;;;;;14.38;9.70;;;15.10;99.90;;;;;;5017862;28;20046;-90
2021/06/28 04:07:50;;;;;;;15.07;10.52;;;15.20;99.90;;;;;;5034239;28;20034;-90
2021/06/28 04:10:19;;;;;;;14.45;10.10;;;15.10;99.90;;;;;;5017744;28;20038;-90
2021/06/28 04:12:48;;;;;;;15.75;10.40;;;15.10;99.90;;;;;;5033861;28;20108;-89
2021/06/28 04:15:16;;;;;;;17.38;10.23;;;15.20;99.90;;;;;;5018232;28;20045;-89
2021/06/28 04:17:45;;;;;;;17.80;9.68;;;15.20;99.90;;;;;;5017445;28;20397;-89
2021/06/28 04:20:15;;;;;;;14.45;9.82;;;15.20;99.90;;;;;;5033865;28;20044;-89
2021/06/28 04:22:43;;;;;;;18.35;9.88;;;15.20;99.90;;;;;;5017338;28;20038;-89
2021/06/28 04:25:13;;;;;;;17.02;10.65;;;15.20;99.90;;;;;;5033740;28;20053;-89
2021/06/28 04:27:41;;;;;;;17.17;9.82;;;15.30;99.90;;;;;;5033276;28;20045;-89
2021/06/28 04:30:10;;;;;;;14.77;9.90;;;15.30;99.90;;;;;;5017329;28;20042;-89
2021/06/28 04:32:37;;;;;;;15.90;10.07;;;15.30;99.90;;;;;;5017223;28;20078;-88
2021/06/28 04:35:07;;;;;;;15.27;10.10;;;15.40;99.90;;;;;;5017609;28;20038;-88
2021/06/28 04:37:35;;;;;;;13.20;9.15;;;15.50;99.90;;;;;;5017468;28;20041;-89
2021/06/28 04:40:08;;;;;;;17.63;9.82;;;15.50;99.90;;;;;;5033406;28;20131;-89
2021/06/28 04:42:36;;;;;;;16.33;9.40;;;15.50;99.90;;;;;;5033365;28;20418;-88
2021/06/28 04:45:04;;;;;;;14.98;9.45;;;15.60;99.90;;;;;;5033331;28;20054;-89
2021/06/28 04:47:32;;;;;;;14.35;9.18;;;15.60;99.90;;;;;;5016961;28;20037;-89
2021/06/28 04:50:03;;;;;;;12.10;9.27;;;15.60;99.90;;;;;;5001250;28;20046;-89
2021/06/28 04:52:37;;;;;;;11.90;8.23;;;15.70;99.90;;;;;;5018684;28;20034;-90
2021/06/28 04:55:09;;;;;;;13.00;8.68;;;15.60;99.90;;;;;;5016951;28;20088;-89
2021/06/28 04:57:36;;;;;;;14.20;8.82;;;15.70;99.90;;;;;;5016804;28;20045;-88
2021/06/28 05:00:05;;;;;;;12.25;8.63;;;15.70;99.90;;;;;;5016151;28;20398;-88
2021/06/28 05:02:31;;;;;;;13.80;9.15;;;15.80;99.90;;;;;;5016533;28;20091;-88
2021/06/28 05:04:58;;;;;;;11.80;8.40;;;15.80;99.90;;;;;;5017209;28;20129;-88
2021/06/28 05:07:25;;;;;;;16.17;8.85;;;15.80;99.90;;;;;;5033166;28;20064;-88
2021/06/28 05:09:52;;;;;;;13.68;8.90;;;15.80;99.90;;;;;;5016725;28;20559;-88
2021/06/28 05:12:18;;;;;;;13.52;8.98;;;15.80;99.90;;;;;;5016722;28;20061;-88
2021/06/28 05:14:46;;;;;;;14.25;8.45;;;15.90;99.90;;;;;;5016024;28;20045;-88
2021/06/28 05:17:13;;;;;;;12.90;8.60;;;15.90;99.90;;;;;;5016804;28;20490;-89
2021/06/28 05:19:40;;;;;;;11.93;8.13;;;15.90;99.90;;;;;;5016139;28;20041;-89
2021/06/28 05:22:07;;;;;;;11.63;8.25;;;16.00;99.90;;;;;;5016517;28;20037;-88
2021/06/28 05:24:34;;;;;;;13.05;8.70;;;16.00;99.90;;;;;;5016316;28;20038;-88
2021/06/28 05:27:01;;;;;;;11.95;8.00;;;16.10;99.90;;;;;;5050271;28;20034;-88
2021/06/28 05:29:28;;;;;;;16.58;8.57;;;16.10;99.90;;;;;;5016311;28;20046;-87
2021/06/28 05:31:55;;;;;;;12.43;8.25;;;16.20;99.90;;;;;;5032804;28;20034;-89
2021/06/28 05:34:22;;;;;;;11.55;8.40;;;16.20;99.90;;;;;;5016593;28;20052;-89
2021/06/28 05:36:49;;;;;;;13.32;8.05;;;16.20;99.90;;;;;;5016037;28;20124;-88
2021/06/28 05:39:16;;;;;;;10.68;7.80;;;16.30;99.90;;;;;;5032023;28;20137;-89
2021/06/28 05:41:44;;;;;;;12.02;8.38;;;16.30;99.90;;;;;;5016523;28;20060;-88
2021/06/28 05:44:10;;;;;;;13.35;8.05;;;16.30;99.90;;;;;;5032673;28;20034;-88
2021/06/28 05:46:37;;;;;;;10.40;7.30;;;16.40;99.90;;;;;;5015963;28;20034;-89
2021/06/28 05:49:04;;;;;;;12.40;7.70;;;16.40;99.90;;;;;;5016400;28;20073;-89
2021/06/28 05:51:31;;;;;;;10.55;7.15;;;16.40;99.90;;;;;;5015580;28;20033;-88
2021/06/28 05:53:58;;;;;;;11.30;7.78;;;16.40;99.90;;;;;;5015536;28;20041;-89
2021/06/28 05:56:25;;;;;;;12.27;6.78;;;16.40;99.90;;;;;;5032130;28;20046;-89
2021/06/28 05:58:52;;;;;;;12.35;7.68;;;16.50;99.90;;;;;;5015334;28;20046;-89
2021/06/28 06:01:18;;;;;;;12.98;7.63;;;16.50;99.90;;;;;;4999971;28;20045;-89
2021/06/28 06:03:45;;;;;;;14.23;7.70;;;16.50;99.90;;;;;;5015852;28;20038;-89
2021/06/28 06:06:12;;;;;;;10.68;8.02;;;16.50;99.90;;;;;;5015654;28;20114;-89
2021/06/28 06:08:39;;;;;;;10.60;7.80;;;16.60;99.90;;;;;;4999465;28;20045;-88
2021/06/28 06:11:08;;;;;;;12.55;7.95;;;16.70;99.90;;;;;;4999657;28;20045;-90
2021/06/28 06:13:35;;;;;;;10.40;7.95;;;16.70;99.90;;;;;;5016094;28;20037;-90
2021/06/28 06:16:02;;;;;;;10.73;7.63;;;16.70;99.90;;;;;;5000222;28;20045;-89
2021/06/28 06:18:28;;;;;;;10.90;7.78;;;16.80;99.90;;;;;;5000590;28;20056;-89
2021/06/28 06:20:55;;;;;;;11.80;7.53;;;16.80;99.90;;;;;;5015121;28;20132;-89
2021/06/28 06:23:22;;;;;;;9.50;7.07;;;16.90;99.90;;;;;;4999281;28;20092;-89
2021/06/28 06:25:49;;;;;;;11.88;7.60;;;17.00;99.90;;;;;;5015307;28;20470;-89
2021/06/28 06:28:16;;;;;;;10.55;7.57;;;17.10;99.90;;;;;;5031861;28;20121;-89
2021/06/28 06:30:43;;;;;;;10.73;8.00;;;17.20;99.90;;;;;;5031246;28;20034;-87
2021/06/28 06:33:10;;;;;;;11.60;7.32;;;17.30;99.90;;;;;;5016295;28;20073;-88
2021/06/28 06:35:38;;;;;;;10.40;7.10;;;17.40;99.90;;;;;;5008037;28;20045;-88
2021/06/28 06:38:05;;;;;;;11.68;7.95;;;17.60;99.90;;;;;;5045155;28;20076;-88
2021/06/28 06:40:32;;;;;;;9.38;7.05;;;17.60;99.90;;;;;;5039700;28;20053;-88
2021/06/28 06:43:00;;;;;;;14.82;8.30;;;17.80;99.90;;;;;;5048189;28;20038;-89
2021/06/28 06:45:27;;;;;;;11.52;8.07;;;17.90;99.90;;;;;;5018445;28;20132;-88
2021/06/28 06:47:54;;;;;;;13.60;7.78;;;18.00;99.90;;;;;;5030900;28;20041;-90
2021/06/28 06:50:21;;;;;;;12.57;7.30;;;18.20;99.90;;;;;;5030147;28;20064;-90
2021/06/28 06:52:50;;;;;;;10.85;7.82;;;18.40;99.90;;;;;;5028254;28;20037;-89
2021/06/28 06:55:17;;;;;;;13.25;7.30;;;18.50;99.90;;;;;;5051000;28;20038;-91
2021/06/28 06:57:44;;;;;;;10.27;7.60;;;18.70;99.90;;;;;;5034278;28;20046;-89
2021/06/28 07:00:15;;;;;;;10.75;6.90;;;18.80;99.90;;;;;;5018613;28;20045;-89
2021/06/28 07:02:43;;;;;;;11.65;7.38;;;18.80;99.90;;;;;;5066926;28;20034;-89
2021/06/28 07:05:11;;;;;;;9.55;7.32;;;18.90;99.90;;;;;;5068278;28;20037;-87
2021/06/28 07:07:40;;;;;;;10.68;7.10;;;19.10;99.90;;;;;;5034590;28;20120;-88
2021/06/28 07:10:09;;;;;;;14.27;8.40;;;19.20;99.90;;;;;;5034688;28;20041;-87
2021/06/28 07:12:36;;;;;;;12.40;7.93;;;19.20;99.90;;;;;;5068010;28;20038;-87
2021/06/28 07:15:05;;;;;;;9.35;6.85;;;19.40;99.90;;;;;;5033808;28;20044;-88
2021/06/28 07:17:32;;;;;;;13.48;8.00;;;19.40;99.90;;;;;;5050386;28;20125;-91
2021/06/28 07:19:59;;;;;;;10.27;7.40;;;19.60;99.90;;;;;;5018140;28;20057;-90
2021/06/28 07:22:33;;;;;;;9.38;8.32;;;19.60;99.90;;;;;;5051998;28;20056;-90
2021/06/28 07:25:01;;;;;;;10.27;7.43;;;19.70;99.90;;;;;;5021176;28;20042;-90
2021/06/28 07:27:28;;;;;;;11.38;8.23;;;19.80;99.90;;;;;;5071079;28;20044;-91
2021/06/28 07:29:55;;;;;;;10.73;7.82;;;19.80;99.90;;;;;;5038003;28;20116;-90
2021/06/28 07:32:22;;;;;;;10.68;7.60;;;20.00;99.90;;;;;;5038065;28;20056;-90
2021/06/28 07:34:49;;;;;;;11.30;8.07;;;20.00;99.90;;;;;;5021866;28;20120;-89
2021/06/28 07:37:16;;;;;;;10.30;7.50;;;20.10;99.90;;;;;;5071331;28;20033;-90
2021/06/28 07:39:43;;;;;;;11.65;7.88;;;20.20;99.90;;;;;;5021729;28;20413;-90
2021/06/28 07:42:10;;;;;;;10.77;8.13;;;20.30;99.90;;;;;;5054223;28;20091;-91
2021/06/28 07:44:38;;;;;;;12.02;8.23;;;20.30;99.90;;;;;;5022810;28;20401;-90
2021/06/28 07:47:05;;;;;;;9.77;7.57;;;20.30;99.90;;;;;;5021655;28;20041;-89
2021/06/28 07:49:32;;;;;;;11.43;7.93;;;20.40;99.90;;;;;;5038648;28;20065;-90
2021/06/28 07:51:59;;;;;;;11.40;7.28;;;20.50;99.90;;;;;;5021865;28;20048;-92
2021/06/28 07:54:27;;;;;;;9.00;7.80;;;20.70;99.90;;;;;;5006111;28;20085;-90
2021/06/28 07:56:54;;;;;;;11.40;7.60;;;20.80;99.90;;;;;;5022435;28;20030;-94
2021/06/28 07:59:22;;;;;;;9.93;7.25;;;21.00;99.90;;;;;;5021401;28;20033;-91
2021/06/28 08:01:48;;;;;;;12.45;7.88;;;21.10;99.90;;;;;;5021735;28;20071;-90
2021/06/28 08:04:15;;;;;;;9.80;7.60;;;21.20;99.90;;;;;;5005930;28;20045;-91
2021/06/28 08:06:43;;;;;;;10.65;7.55;;;21.30;99.90;;;;;;5021853;28;20045;-92
2021/06/28 08:09:10;;;;;;;9.63;7.95;;;21.40;99.90;;;;;;5037682;28;20467;-92
2021/06/28 08:11:37;;;;;;;12.00;7.93;;;21.50;99.90;;;;;;5037974;28;20040;-90
2021/06/28 08:14:05;;;;;;;9.50;7.28;;;21.60;99.90;;;;;;5069856;28;20056;-91
2021/06/28 08:16:32;;;;;;;9.00;6.65;;;21.70;99.90;;;;;;5021505;28;20044;-91
2021/06/28 08:18:58;;;;;;;9.32;7.18;;;21.80;99.90;;;;;;5053588;28;20034;-91
2021/06/28 08:21:25;;;;;;;10.52;6.97;;;22.00;99.90;;;;;;5053804;28;20164;-91
2021/06/28 08:23:52;;;;;;;8.88;7.20;;;22.00;99.90;;;;;;5037444;28;20037;-91
2021/06/28 08:26:19;;;;;;;10.40;7.28;;;22.10;99.90;;;;;;5037969;28;20073;-93
2021/06/28 08:28:46;;;;;;;9.88;6.95;;;22.30;99.90;;;;;;5037687;28;20041;-91
2021/06/28 08:31:13;;;;;;;11.70;7.60;;;22.50;99.90;;;;;;5021218;28;20045;-91
2021/06/28 08:33:41;;;;;;;8.75;7.85;;;22.60;99.90;;;;;;5053973;28;20029;-91
2021/06/28 08:36:08;;;;;;;15.98;7.40;;;22.60;99.90;;;;;;5052462;28;20104;-91
2021/06/28 08:38:35;;;;;;;8.50;7.25;;;22.60;99.90;;;;;;5021115;28;20133;-92
2021/06/28 08:41:02;;;;;;;11.35;7.47;;;22.70;99.90;;;;;;5053477;28;20502;-92
2021/06/28 08:43:29;;;;;;;10.73;6.78;;;22.90;99.90;;;;;;5037565;28;20033;-91
2021/06/28 08:45:57;;;;;;;10.68;7.50;;;23.00;99.90;;;;;;5036764;28;20045;-92
2021/06/28 08:48:23;;;;;;;9.88;6.75;;;23.10;99.90;;;;;;5053296;28;20477;-92
2021/06/28 08:50:53;;;;;;;10.38;6.88;;;23.10;99.90;;;;;;5037142;28;20083;-93
2021/06/28 08:53:22;;;;;;;8.30;7.13;;;23.20;99.90;;;;;;5053636;28;20186;-92
2021/06/28 08:55:50;;;;;;;8.88;7.43;;;23.30;99.90;;;;;;5037170;28;20033;-92
2021/06/28 08:58:19;;;;;;;9.20;7.53;;;23.30;99.90;;;;;;5037142;28;20042;-92
2021/06/28 09:00:46;;;;;;;8.85;7.05;;;23.50;99.90;;;;;;5037577;28;20052;-93
2021/06/28 09:03:14;;;;;;;9.45;6.68;;;23.50;99.90;;;;;;5004570;28;20114;-91
2021/06/28 09:05:59;;;;;;;7.50;6.70;;;23.60;99.90;;;;;;5037541;28;20037;-92
2021/06/28 09:08:26;;;;;;;9.18;6.68;;;23.80;99.90;;;;;;5054630;28;20037;-91
2021/06/28 09:10:53;;;;;;;9.63;6.30;;;24.00;99.90;;;;;;5036793;28;20037;-91
2021/06/28 09:13:42;;;;;;;8.68;6.55;;;24.10;99.90;;;;;;5020986;28;20099;-92
2021/06/28 09:16:27;;;;;;;9.35;5.80;;;24.30;99.90;;;;;;5054864;28;20505;-94
2021/06/28 09:19:15;;;;;;;8.00;5.72;;;24.50;99.90;;;;;;5036976;28;20038;-93
2021/06/28 09:21:45;;;;;;;9.93;6.20;;;24.60;99.90;;;;;;5053725;28;20099;-92
2021/06/28 09:24:38;;;;;;;8.80;6.32;;;24.70;99.90;;;;;;5052782;28;20087;-92
2021/06/28 09:27:11;;;;;;;7.80;5.50;;;24.90;99.90;;;;;;5053186;28;20143;-93
2021/06/28 09:29:45;;;;;;;8.13;6.30;;;25.00;99.90;;;;;;5053307;28;20496;-93
2021/06/28 09:32:14;;;;;;;8.25;6.22;;;25.10;99.90;;;;;;5052962;28;20589;-92
2021/06/28 09:34:42;;;;;;;7.90;5.80;;;25.20;99.90;;;;;;5053061;28;20464;-92
2021/06/28 09:37:14;;;;;;;8.88;6.25;;;25.40;99.90;;;;;;5052143;28;20041;-92
2021/06/28 09:39:45;;;;;;;7.40;6.00;;;25.50;99.90;;;;;;5020357;28;20072;-92
2021/06/28 09:42:15;;;;;;;7.97;5.72;;;25.70;99.90;;;;;;5036061;28;20049;-91
2021/06/28 09:45:01;;;;;;;6.35;5.07;;;25.70;99.90;;;;;;5036090;28;20057;-94
2021/06/28 09:47:37;;;;;;;7.25;5.70;;;25.90;99.90;;;;;;5052482;28;20030;-93
2021/06/28 09:50:06;;;;;;;7.60;5.72;;;26.00;99.90;;;;;;5052035;28;20535;-91
2021/06/28 09:52:50;;;;;;;7.85;5.95;;;26.10;99.90;;;;;;5052144;28;20121;-92
2021/06/28 09:55:18;;;;;;;7.57;5.75;;;26.20;99.90;;;;;;5051743;28;20049;-92
2021/06/28 09:58:24;;;;;;;11.77;5.57;;;26.30;99.90;;;;;;5035668;28;20056;-91
2021/06/28 10:00:51;;;;;;;;;;;26.20;99.90;;;;;;5037391;28;20053;-92
2021/06/28 10:03:45;;;;;;;6.32;4.78;;;26.40;99.90;;;;;;5051564;28;19921;-92
2021/06/28 10:09:12;;;;;;;6.82;5.38;;;26.50;99.90;;;;;;5069497;28;20440;-92
2021/06/28 10:11:45;;;;;;;7.10;5.53;;;26.50;99.90;;;;;;5051623;28;20056;-91
2021/06/28 10:14:12;;;;;;;7.28;5.20;;;26.40;99.90;;;;;;5053581;28;20482;-91
2021/06/28 10:16:40;;;;;;;5.95;4.90;;;26.50;99.90;;;;;;5035721;28;20091;-92
2021/06/28 10:19:09;;;;;;;6.32;5.15;;;26.60;99.90;;;;;;5018605;28;20100;-73
2021/06/28 10:21:37;;;;;;;6.20;5.30;;;26.60;99.90;;;;;;5033620;28;20116;-74
2021/06/28 10:24:06;;;;;;;5.47;4.40;;;26.70;99.90;;;;;;5049665;28;20123;-77
2021/06/28 10:26:33;;;;;;;9.10;5.57;;;26.90;99.90;;;;;;5064509;28;20458;-75
2021/06/28 10:29:00;;;;;;;10.45;5.53;;;27.00;99.90;;;;;;5064809;28;20087;-76
2021/06/28 10:31:27;;;;;;;5.97;5.15;;;27.20;99.90;;;;;;5049678;28;20044;-76
2021/06/28 10:34:00;;;;;;;5.82;4.60;;;27.30;99.90;;;;;;5033455;28;20029;-77
2021/06/28 10:36:37;;;;;;;7.25;4.75;;;27.40;99.90;;;;;;5067008;28;20120;-77
2021/06/28 10:39:23;;;;;;;5.70;4.57;;;27.40;99.90;;;;;;5049312;28;20033;-77
2021/06/28 10:41:52;;;;;;;6.78;4.40;;;27.50;99.90;;;;;;5049682;28;20548;-76
2021/06/28 10:44:22;;;;;;;7.72;4.38;;;27.70;99.90;;;;;;5053540;28;20049;-75
2021/06/28 10:46:51;;;;;;;6.22;4.57;;;27.80;99.90;;;;;;5062814;28;20034;-74
2021/06/28 10:49:52;;;;;;;7.32;5.43;;;27.80;99.90;;;;;;5046034;28;20030;-76
2021/06/28 10:52:38;;;;;;;5.30;4.60;;;27.80;99.60;;;;;;5064458;28;20038;-84
2021/06/28 10:55:16;;;;;;;6.40;4.85;;;27.70;99.90;;;;;;5048039;28;20048;-83
2021/06/28 10:57:47;;;;;;;6.05;4.53;;;27.90;99.90;;;;;;5045926;28;20038;-84
2021/06/28 11:00:16;;;;;;;7.15;4.85;;;28.10;99.90;;;;;;5046294;28;20037;-81
2021/06/28 11:02:52;;;;;;;5.65;4.28;;;28.10;99.90;;;;;;5046527;28;20506;-95
2021/06/28 11:05:18;;;;;;;5.22;4.18;;;28.20;99.90;;;;;;5049304;28;20501;-86
2021/06/28 11:07:50;;;;;;;6.05;4.38;;;28.20;99.90;;;;;;5050528;28;20045;-89
2021/06/28 11:10:38;;;;;;;6.10;4.78;;;28.30;99.90;;;;;;5050649;28;20381;-89
2021/06/28 11:13:31;;;;;;;5.68;4.53;;;28.30;98.90;;;;;;5033705;28;20087;-85
2021/06/28 11:16:28;;;;;;;5.75;4.93;;;28.30;99.90;;;;;;5067407;28;20041;-86
2021/06/28 11:18:55;;;;;;;5.57;4.35;;;28.40;99.00;;;;;;5034308;28;20084;-88
2021/06/28 11:21:42;;;;;;;5.47;4.55;;;28.60;99.90;;;;;;5049796;28;20480;-85
2021/06/28 11:24:32;;;;;;;6.35;4.80;;;28.70;99.30;;;;;;5049541;28;20044;-89
2021/06/28 11:27:17;;;;;;;7.13;5.10;;;28.70;99.00;;;;;;5023968;28;20045;-89
2021/06/28 11:29:49;;;;;;;7.05;4.30;;;28.60;97.90;;;;;;5034682;28;20107;-90
2021/06/28 11:32:25;;;;;;;7.00;4.05;;;28.70;99.10;;;;;;5018279;28;20125;-90
2021/06/28 11:34:52;;;;;;;6.05;4.18;;;28.70;98.80;;;;;;5050904;28;20037;-90
2021/06/28 11:37:19;;;;;;;6.28;3.83;;;28.60;98.60;;;;;;5034037;28;20465;-90
2021/06/28 11:39:54;;;;;;;7.35;4.65;;;28.60;98.40;;;;;;5050480;28;20050;-90
2021/06/28 11:42:32;;;;;;;5.97;4.47;;;28.60;97.60;;;;;;5050309;28;20033;-90
2021/06/28 11:45:09;;;;;;;5.30;4.00;;;28.70;98.60;;;;;;5051312;28;20033;-89
2021/06/28 11:47:48;;;;;;;5.38;3.92;;;28.70;99.20;;;;;;5049948;28;20029;-90
2021/06/28 11:50:24;;;;;;;6.90;4.50;;;28.90;98.90;;;;;;5049815;28;20044;-89
2021/06/28 11:52:56;;;;;;;7.60;4.80;;;28.80;98.70;;;;;;5050802;28;20393;-90
2021/06/28 11:55:23;;;;;;;6.03;4.10;;;28.80;99.20;;;;;;5049917;28;20069;-88
2021/06/28 11:57:54;;;;;;;5.53;4.25;;;29.00;99.50;;;;;;5018076;28;20485;-89
2021/06/28 12:00:22;;;;;;;6.28;4.55;;;29.00;99.10;;;;;;5034185;28;20057;-90
2021/06/28 12:03:31;;;;;;;6.78;4.10;;;29.10;98.60;;;;;;5050270;28;20084;-90
2021/06/28 12:06:06;;;;;;;5.25;4.20;;;29.00;98.20;;;;;;5050090;28;20041;-89
2021/06/28 12:08:33;;;;;;;7.68;4.95;;;29.00;98.50;;;;;;5049683;28;20514;-88
2021/06/28 12:11:01;;;;;;;4.75;3.85;;;29.00;98.80;;;;;;5020627;28;20045;-88
2021/06/28 12:13:29;;;;;;;5.97;4.60;;;29.10;99.30;;;;;;5036874;28;20072;-89
2021/06/28 12:15:56;;;;;;;5.97;4.60;;;29.00;98.30;;;;;;5071155;28;20049;-89
2021/06/28 12:18:23;;;;;;;6.28;4.05;;;28.90;98.10;;;;;;5053416;28;20485;-88
2021/06/28 12:20:57;;;;;;;10.32;5.20;;;29.00;98.50;;;;;;5053788;28;20045;-87
2021/06/28 12:23:24;;;;;;;4.70;4.07;;;28.80;97.50;;;;;;5053398;28;20401;-88
2021/06/28 12:25:51;;;;;;;6.68;4.20;;;28.60;98.20;;;;;;5053569;28;20087;-88
2021/06/28 12:28:30;;;;;;;5.97;4.55;;;28.40;98.50;;;;;;5036100;28;20064;-87
2021/06/28 12:30:57;;;;;;;6.63;4.20;;;28.50;97.60;;;;;;5052811;28;20043;-87
2021/06/28 12:33:25;;;;;;;6.22;4.47;;;28.60;98.70;;;;;;5036440;28;20041;-87
2021/06/28 12:35:59;;;;;;;6.68;4.80;;;28.80;98.40;;;;;;5020205;28;20034;-86
2021/06/28 12:38:26;;;;;;;6.88;4.57;;;28.90;97.80;;;;;;5036224;28;20107;-88
2021/06/28 12:40:53;;;;;;;5.88;4.82;;;28.90;97.50;;;;;;5052853;28;20053;-88
2021/06/28 12:43:20;;;;;;;7.28;4.55;;;29.10;97.30;;;;;;5019924;28;20048;-87
2021/06/28 12:45:49;;;;;;;5.57;4.63;;;29.10;97.60;;;;;;5052398;28;20091;-87
2021/06/28 12:48:23;;;;;;;8.63;4.55;;;28.90;97.40;;;;;;5070333;28;20393;-88
2021/06/28 12:50:58;;;;;;;6.47;4.53;;;28.80;97.60;;;;;;5052878;28;20466;-87
2021/06/28 12:53:26;;;;;;;7.80;4.25;;;28.70;97.40;;;;;;5051732;28;20037;-81
2021/06/28 12:56:24;;;;;;;6.72;4.45;;;28.70;97.70;;;;;;5069460;28;20068;-82